sensor_id;sensor_type;location;lat;lon;timestamp;P1;durP1;ratioP1;P2;durP2;ratioP2
7487;SDS011;3785;52.260;4.728;2022-08-19T00:01:36;8.05;;;6.07;;
7487;SDS011;3785;52.260;4.728;2022-08-19T00:04:58;9.07;;;6.30;;
7487;SDS011;3785;52.260;4.728;2022-08-19T00:08:19;9.25;;;6.40;;
7487;SDS011;3785;52.260;4.728;2022-08-19T00:11:39;9.38;;;6.68;;
7487;SDS011;3785;52.260;4.728;2022-08-19T00:15:01;9.98;;;6.10;;
7487;SDS011;3785;52.260;4.728;2022-08-19T00:18:21;9.82;;;5.80;;
7487;SDS011;3785;52.260;4.728;2022-08-19T00:21:42;8.98;;;6.20;;
7487;SDS011;3785;52.260;4.728;2022-08-19T00:25:04;10.63;;;6.40;;
7487;SDS011;3785;52.260;4.728;2022-08-19T00:28:25;9.07;;;5.97;;
7487;SDS011;3785;52.260;4.728;2022-08-19T00:31:46;13.68;;;6.88;;
7487;SDS011;3785;52.260;4.728;2022-08-19T00:35:07;8.30;;;6.03;;
7487;SDS011;3785;52.260;4.728;2022-08-19T00:38:29;9.38;;;6.13;;
7487;SDS011;3785;52.260;4.728;2022-08-19T00:41:50;9.38;;;5.80;;
7487;SDS011;3785;52.260;4.728;2022-08-19T00:45:14;8.15;;;5.45;;
7487;SDS011;3785;52.260;4.728;2022-08-19T00:48:37;7.90;;;6.25;;
7487;SDS011;3785;52.260;4.728;2022-08-19T00:52:00;8.07;;;5.70;;
7487;SDS011;3785;52.260;4.728;2022-08-19T00:55:24;7.85;;;6.13;;
7487;SDS011;3785;52.260;4.728;2022-08-19T00:58:48;8.25;;;6.15;;
7487;SDS011;3785;52.260;4.728;2022-08-19T01:02:09;6.78;;;5.63;;
7487;SDS011;3785;52.260;4.728;2022-08-19T01:05:30;7.32;;;5.72;;
7487;SDS011;3785;52.260;4.728;2022-08-19T01:08:50;8.75;;;6.05;;
7487;SDS011;3785;52.260;4.728;2022-08-19T01:12:11;6.60;;;5.00;;
7487;SDS011;3785;52.260;4.728;2022-08-19T01:15:33;9.70;;;5.90;;
7487;SDS011;3785;52.260;4.728;2022-08-19T01:18:56;8.13;;;5.35;;
7487;SDS011;3785;52.260;4.728;2022-08-19T01:22:19;8.73;;;5.35;;
7487;SDS011;3785;52.260;4.728;2022-08-19T01:26:13;7.10;;;5.32;;
7487;SDS011;3785;52.260;4.728;2022-08-19T01:29:37;8.75;;;5.20;;
7487;SDS011;3785;52.260;4.728;2022-08-19T01:33:00;8.43;;;5.70;;
7487;SDS011;3785;52.260;4.728;2022-08-19T01:36:23;7.95;;;5.50;;
7487;SDS011;3785;52.260;4.728;2022-08-19T01:39:46;6.97;;;5.03;;
7487;SDS011;3785;52.260;4.728;2022-08-19T01:43:07;7.32;;;4.75;;
7487;SDS011;3785;52.260;4.728;2022-08-19T01:46:28;6.30;;;4.70;;
7487;SDS011;3785;52.260;4.728;2022-08-19T01:49:48;8.98;;;5.38;;
7487;SDS011;3785;52.260;4.728;2022-08-19T01:53:10;8.10;;;5.53;;
7487;SDS011;3785;52.260;4.728;2022-08-19T01:56:31;7.80;;;5.38;;
7487;SDS011;3785;52.260;4.728;2022-08-19T01:59:51;9.30;;;5.90;;
7487;SDS011;3785;52.260;4.728;2022-08-19T02:03:12;6.72;;;5.63;;
7487;SDS011;3785;52.260;4.728;2022-08-19T02:06:33;9.13;;;6.25;;
7487;SDS011;3785;52.260;4.728;2022-08-19T02:09:53;8.98;;;6.07;;
7487;SDS011;3785;52.260;4.728;2022-08-19T02:13:15;12.07;;;6.45;;
7487;SDS011;3785;52.260;4.728;2022-08-19T02:16:36;9.35;;;6.55;;
7487;SDS011;3785;52.260;4.728;2022-08-19T02:19:57;10.38;;;7.32;;
7487;SDS011;3785;52.260;4.728;2022-08-19T02:23:17;10.45;;;6.97;;
7487;SDS011;3785;52.260;4.728;2022-08-19T02:26:38;10.73;;;6.93;;
7487;SDS011;3785;52.260;4.728;2022-08-19T02:29:59;13.25;;;6.95;;
7487;SDS011;3785;52.260;4.728;2022-08-19T02:33:21;10.05;;;6.88;;
7487;SDS011;3785;52.260;4.728;2022-08-19T02:36:41;10.05;;;7.10;;
7487;SDS011;3785;52.260;4.728;2022-08-19T02:40:02;9.77;;;7.63;;
7487;SDS011;3785;52.260;4.728;2022-08-19T02:43:24;11.75;;;8.15;;
7487;SDS011;3785;52.260;4.728;2022-08-19T02:46:46;11.45;;;7.45;;
7487;SDS011;3785;52.260;4.728;2022-08-19T02:50:07;11.25;;;8.27;;
7487;SDS011;3785;52.260;4.728;2022-08-19T02:53:28;12.30;;;8.35;;
7487;SDS011;3785;52.260;4.728;2022-08-19T02:56:49;14.98;;;8.77;;
7487;SDS011;3785;52.260;4.728;2022-08-19T03:00:09;13.20;;;8.57;;
7487;SDS011;3785;52.260;4.728;2022-08-19T03:03:33;17.98;;;10.35;;
7487;SDS011;3785;52.260;4.728;2022-08-19T03:06:54;17.75;;;9.73;;
7487;SDS011;3785;52.260;4.728;2022-08-19T03:10:14;18.27;;;11.73;;
7487;SDS011;3785;52.260;4.728;2022-08-19T03:13:35;16.05;;;10.40;;
7487;SDS011;3785;52.260;4.728;2022-08-19T03:16:55;20.27;;;11.07;;
7487;SDS011;3785;52.260;4.728;2022-08-19T03:20:17;18.00;;;11.35;;
7487;SDS011;3785;52.260;4.728;2022-08-19T03:23:38;17.75;;;11.90;;
7487;SDS011;3785;52.260;4.728;2022-08-19T03:26:59;19.77;;;11.60;;
7487;SDS011;3785;52.260;4.728;2022-08-19T03:30:19;19.67;;;12.00;;
7487;SDS011;3785;52.260;4.728;2022-08-19T03:33:40;21.45;;;12.30;;
7487;SDS011;3785;52.260;4.728;2022-08-19T03:37:03;21.75;;;12.93;;
7487;SDS011;3785;52.260;4.728;2022-08-19T03:40:28;24.02;;;13.38;;
7487;SDS011;3785;52.260;4.728;2022-08-19T03:43:50;21.90;;;13.70;;
7487;SDS011;3785;52.260;4.728;2022-08-19T03:47:11;26.90;;;13.95;;
7487;SDS011;3785;52.260;4.728;2022-08-19T03:50:39;23.00;;;12.40;;
7487;SDS011;3785;52.260;4.728;2022-08-19T03:54:00;21.20;;;12.55;;
7487;SDS011;3785;52.260;4.728;2022-08-19T03:57:23;21.05;;;12.82;;
7487;SDS011;3785;52.260;4.728;2022-08-19T04:00:43;24.60;;;13.07;;
7487;SDS011;3785;52.260;4.728;2022-08-19T04:04:04;21.05;;;12.70;;
7487;SDS011;3785;52.260;4.728;2022-08-19T04:07:25;23.23;;;13.95;;
7487;SDS011;3785;52.260;4.728;2022-08-19T04:10:46;23.90;;;13.88;;
7487;SDS011;3785;52.260;4.728;2022-08-19T04:14:07;23.05;;;12.88;;
7487;SDS011;3785;52.260;4.728;2022-08-19T04:17:29;22.70;;;13.43;;
7487;SDS011;3785;52.260;4.728;2022-08-19T04:20:49;23.85;;;13.88;;
7487;SDS011;3785;52.260;4.728;2022-08-19T04:24:10;26.67;;;13.25;;
7487;SDS011;3785;52.260;4.728;2022-08-19T04:27:31;24.67;;;14.00;;
7487;SDS011;3785;52.260;4.728;2022-08-19T04:30:53;24.20;;;13.57;;
7487;SDS011;3785;52.260;4.728;2022-08-19T04:34:15;23.92;;;14.40;;
7487;SDS011;3785;52.260;4.728;2022-08-19T04:37:36;24.90;;;14.50;;
7487;SDS011;3785;52.260;4.728;2022-08-19T04:40:58;24.42;;;13.82;;
7487;SDS011;3785;52.260;4.728;2022-08-19T04:44:37;28.20;;;15.02;;
7487;SDS011;3785;52.260;4.728;2022-08-19T04:47:59;25.27;;;13.90;;
7487;SDS011;3785;52.260;4.728;2022-08-19T04:51:21;24.92;;;13.82;;
7487;SDS011;3785;52.260;4.728;2022-08-19T04:54:42;25.80;;;13.75;;
7487;SDS011;3785;52.260;4.728;2022-08-19T04:58:03;24.30;;;13.48;;
7487;SDS011;3785;52.260;4.728;2022-08-19T05:01:25;29.48;;;14.55;;
7487;SDS011;3785;52.260;4.728;2022-08-19T05:04:48;25.85;;;14.57;;
7487;SDS011;3785;52.260;4.728;2022-08-19T05:08:08;29.17;;;16.02;;
7487;SDS011;3785;52.260;4.728;2022-08-19T05:11:34;30.75;;;15.05;;
7487;SDS011;3785;52.260;4.728;2022-08-19T05:14:59;24.58;;;14.05;;
7487;SDS011;3785;52.260;4.728;2022-08-19T05:18:20;31.17;;;14.75;;
7487;SDS011;3785;52.260;4.728;2022-08-19T05:21:59;31.65;;;14.50;;
7487;SDS011;3785;52.260;4.728;2022-08-19T05:25:39;29.45;;;13.43;;
7487;SDS011;3785;52.260;4.728;2022-08-19T05:29:00;31.05;;;15.02;;
7487;SDS011;3785;52.260;4.728;2022-08-19T05:32:20;34.05;;;15.00;;
7487;SDS011;3785;52.260;4.728;2022-08-19T05:35:43;34.70;;;16.50;;
7487;SDS011;3785;52.260;4.728;2022-08-19T05:39:04;33.28;;;15.77;;
7487;SDS011;3785;52.260;4.728;2022-08-19T05:42:24;30.98;;;15.10;;
7487;SDS011;3785;52.260;4.728;2022-08-19T05:45:45;31.50;;;15.63;;
7487;SDS011;3785;52.260;4.728;2022-08-19T05:49:06;36.92;;;16.55;;
7487;SDS011;3785;52.260;4.728;2022-08-19T05:52:26;34.45;;;15.80;;
7487;SDS011;3785;52.260;4.728;2022-08-19T05:55:47;34.25;;;16.48;;
7487;SDS011;3785;52.260;4.728;2022-08-19T05:59:09;36.05;;;17.80;;
7487;SDS011;3785;52.260;4.728;2022-08-19T06:02:31;35.78;;;16.95;;
7487;SDS011;3785;52.260;4.728;2022-08-19T06:05:51;40.25;;;16.77;;
7487;SDS011;3785;52.260;4.728;2022-08-19T06:09:13;38.95;;;16.98;;
7487;SDS011;3785;52.260;4.728;2022-08-19T06:12:34;35.95;;;16.13;;
7487;SDS011;3785;52.260;4.728;2022-08-19T06:15:55;41.47;;;16.70;;
7487;SDS011;3785;52.260;4.728;2022-08-19T06:19:16;32.72;;;15.60;;
7487;SDS011;3785;52.260;4.728;2022-08-19T06:22:38;31.58;;;15.45;;
7487;SDS011;3785;52.260;4.728;2022-08-19T06:26:02;35.22;;;16.35;;
7487;SDS011;3785;52.260;4.728;2022-08-19T06:29:24;35.10;;;16.70;;
7487;SDS011;3785;52.260;4.728;2022-08-19T06:32:46;37.15;;;15.35;;
7487;SDS011;3785;52.260;4.728;2022-08-19T06:36:07;33.80;;;15.95;;
7487;SDS011;3785;52.260;4.728;2022-08-19T06:39:29;36.25;;;15.68;;
7487;SDS011;3785;52.260;4.728;2022-08-19T06:42:52;30.20;;;15.60;;
7487;SDS011;3785;52.260;4.728;2022-08-19T06:46:13;33.45;;;16.55;;
7487;SDS011;3785;52.260;4.728;2022-08-19T06:49:36;33.67;;;15.82;;
7487;SDS011;3785;52.260;4.728;2022-08-19T06:52:56;29.50;;;14.85;;
7487;SDS011;3785;52.260;4.728;2022-08-19T06:56:18;30.75;;;15.95;;
7487;SDS011;3785;52.260;4.728;2022-08-19T06:59:40;26.95;;;14.80;;
7487;SDS011;3785;52.260;4.728;2022-08-19T07:03:01;29.73;;;14.95;;
7487;SDS011;3785;52.260;4.728;2022-08-19T07:06:22;27.70;;;15.18;;
7487;SDS011;3785;52.260;4.728;2022-08-19T07:09:43;24.70;;;14.13;;
7487;SDS011;3785;52.260;4.728;2022-08-19T07:13:04;30.67;;;15.43;;
7487;SDS011;3785;52.260;4.728;2022-08-19T07:16:25;25.30;;;13.82;;
7487;SDS011;3785;52.260;4.728;2022-08-19T07:19:47;23.75;;;13.85;;
7487;SDS011;3785;52.260;4.728;2022-08-19T07:23:10;24.65;;;13.10;;
7487;SDS011;3785;52.260;4.728;2022-08-19T07:26:31;20.90;;;11.05;;
7487;SDS011;3785;52.260;4.728;2022-08-19T07:29:55;19.65;;;11.60;;
7487;SDS011;3785;52.260;4.728;2022-08-19T07:33:16;24.23;;;12.30;;
7487;SDS011;3785;52.260;4.728;2022-08-19T07:36:38;19.05;;;10.90;;
7487;SDS011;3785;52.260;4.728;2022-08-19T07:40:00;22.50;;;12.60;;
7487;SDS011;3785;52.260;4.728;2022-08-19T07:43:21;18.45;;;10.10;;
7487;SDS011;3785;52.260;4.728;2022-08-19T07:46:46;17.55;;;9.93;;
7487;SDS011;3785;52.260;4.728;2022-08-19T07:50:09;14.95;;;8.57;;
7487;SDS011;3785;52.260;4.728;2022-08-19T07:53:32;15.23;;;9.00;;
7487;SDS011;3785;52.260;4.728;2022-08-19T07:56:52;14.07;;;9.10;;
7487;SDS011;3785;52.260;4.728;2022-08-19T08:00:13;14.25;;;8.35;;
7487;SDS011;3785;52.260;4.728;2022-08-19T08:03:35;12.82;;;8.88;;
7487;SDS011;3785;52.260;4.728;2022-08-19T08:07:15;11.88;;;7.35;;
7487;SDS011;3785;52.260;4.728;2022-08-19T08:10:54;13.60;;;6.47;;
7487;SDS011;3785;52.260;4.728;2022-08-19T08:14:17;8.27;;;5.88;;
7487;SDS011;3785;52.260;4.728;2022-08-19T08:17:48;9.05;;;5.13;;
7487;SDS011;3785;52.260;4.728;2022-08-19T08:21:09;9.38;;;5.90;;
7487;SDS011;3785;52.260;4.728;2022-08-19T08:24:30;7.03;;;4.70;;
7487;SDS011;3785;52.260;4.728;2022-08-19T08:27:50;6.60;;;3.55;;
7487;SDS011;3785;52.260;4.728;2022-08-19T08:31:12;4.47;;;3.40;;
7487;SDS011;3785;52.260;4.728;2022-08-19T08:34:32;4.70;;;3.78;;
7487;SDS011;3785;52.260;4.728;2022-08-19T08:37:53;6.25;;;4.25;;
7487;SDS011;3785;52.260;4.728;2022-08-19T08:45:00;6.20;;;4.75;;
7487;SDS011;3785;52.260;4.728;2022-08-19T08:52:10;4.72;;;3.53;;
7487;SDS011;3785;52.260;4.728;2022-08-19T08:55:55;6.50;;;3.78;;
7487;SDS011;3785;52.260;4.728;2022-08-19T08:59:37;6.88;;;3.60;;
7487;SDS011;3785;52.260;4.728;2022-08-19T09:02:57;6.00;;;3.97;;
7487;SDS011;3785;52.260;4.728;2022-08-19T09:06:21;6.57;;;3.90;;
7487;SDS011;3785;52.260;4.728;2022-08-19T09:09:50;4.82;;;3.83;;
7487;SDS011;3785;52.260;4.728;2022-08-19T09:16:47;5.18;;;4.18;;
7487;SDS011;3785;52.260;4.728;2022-08-19T09:23:30;7.22;;;4.85;;
7487;SDS011;3785;52.260;4.728;2022-08-19T09:26:50;5.32;;;3.80;;
7487;SDS011;3785;52.260;4.728;2022-08-19T09:30:13;7.28;;;3.53;;
7487;SDS011;3785;52.260;4.728;2022-08-19T09:33:36;5.28;;;3.33;;
7487;SDS011;3785;52.260;4.728;2022-08-19T09:36:58;5.75;;;4.25;;
7487;SDS011;3785;52.260;4.728;2022-08-19T09:40:20;4.10;;;3.50;;
7487;SDS011;3785;52.260;4.728;2022-08-19T09:43:41;4.75;;;3.92;;
7487;SDS011;3785;52.260;4.728;2022-08-19T09:47:02;10.98;;;4.53;;
7487;SDS011;3785;52.260;4.728;2022-08-19T09:50:23;9.45;;;3.67;;
7487;SDS011;3785;52.260;4.728;2022-08-19T09:53:44;6.13;;;3.92;;
7487;SDS011;3785;52.260;4.728;2022-08-19T09:57:05;5.75;;;3.58;;
7487;SDS011;3785;52.260;4.728;2022-08-19T10:00:26;4.80;;;3.20;;
7487;SDS011;3785;52.260;4.728;2022-08-19T10:03:47;4.80;;;3.28;;
7487;SDS011;3785;52.260;4.728;2022-08-19T10:07:10;4.30;;;2.92;;
7487;SDS011;3785;52.260;4.728;2022-08-19T10:10:34;3.72;;;2.70;;
7487;SDS011;3785;52.260;4.728;2022-08-19T10:13:55;4.22;;;3.08;;
7487;SDS011;3785;52.260;4.728;2022-08-19T10:17:16;4.82;;;2.67;;
7487;SDS011;3785;52.260;4.728;2022-08-19T10:20:37;4.25;;;2.58;;
7487;SDS011;3785;52.260;4.728;2022-08-19T10:23:59;4.55;;;2.67;;
7487;SDS011;3785;52.260;4.728;2022-08-19T10:27:21;6.18;;;2.78;;
7487;SDS011;3785;52.260;4.728;2022-08-19T10:30:42;4.90;;;2.67;;
7487;SDS011;3785;52.260;4.728;2022-08-19T10:34:02;5.18;;;2.75;;
7487;SDS011;3785;52.260;4.728;2022-08-19T10:37:23;3.97;;;2.33;;
7487;SDS011;3785;52.260;4.728;2022-08-19T10:40:44;4.72;;;2.30;;
7487;SDS011;3785;52.260;4.728;2022-08-19T10:44:06;4.47;;;2.28;;
7487;SDS011;3785;52.260;4.728;2022-08-19T10:47:28;3.95;;;2.42;;
7487;SDS011;3785;52.260;4.728;2022-08-19T10:50:50;4.80;;;2.40;;
7487;SDS011;3785;52.260;4.728;2022-08-19T10:54:29;6.65;;;2.30;;
7487;SDS011;3785;52.260;4.728;2022-08-19T10:58:16;2.33;;;1.80;;
7487;SDS011;3785;52.260;4.728;2022-08-19T11:01:42;3.88;;;2.08;;
7487;SDS011;3785;52.260;4.728;2022-08-19T11:05:04;3.47;;;1.90;;
7487;SDS011;3785;52.260;4.728;2022-08-19T11:08:25;4.20;;;2.40;;
7487;SDS011;3785;52.260;4.728;2022-08-19T11:11:46;3.08;;;2.03;;
7487;SDS011;3785;52.260;4.728;2022-08-19T11:15:08;3.65;;;1.90;;
7487;SDS011;3785;52.260;4.728;2022-08-19T11:18:30;3.97;;;1.90;;
7487;SDS011;3785;52.260;4.728;2022-08-19T11:21:51;4.18;;;1.70;;
7487;SDS011;3785;52.260;4.728;2022-08-19T11:25:13;2.83;;;1.60;;
7487;SDS011;3785;52.260;4.728;2022-08-19T11:28:34;2.70;;;1.45;;
7487;SDS011;3785;52.260;4.728;2022-08-19T11:31:55;4.78;;;1.60;;
7487;SDS011;3785;52.260;4.728;2022-08-19T11:35:15;3.13;;;1.52;;
7487;SDS011;3785;52.260;4.728;2022-08-19T11:38:36;2.15;;;1.27;;
7487;SDS011;3785;52.260;4.728;2022-08-19T11:41:57;3.08;;;1.23;;
7487;SDS011;3785;52.260;4.728;2022-08-19T11:45:19;2.10;;;1.15;;
7487;SDS011;3785;52.260;4.728;2022-08-19T11:48:39;2.50;;;1.10;;
7487;SDS011;3785;52.260;4.728;2022-08-19T11:52:00;1.92;;;1.08;;
7487;SDS011;3785;52.260;4.728;2022-08-19T11:55:21;2.03;;;1.27;;
7487;SDS011;3785;52.260;4.728;2022-08-19T11:58:42;2.47;;;1.40;;
7487;SDS011;3785;52.260;4.728;2022-08-19T12:02:03;3.33;;;1.10;;
7487;SDS011;3785;52.260;4.728;2022-08-19T12:05:24;1.48;;;0.90;;
7487;SDS011;3785;52.260;4.728;2022-08-19T12:08:44;1.95;;;1.00;;
7487;SDS011;3785;52.260;4.728;2022-08-19T12:12:05;1.85;;;1.10;;
7487;SDS011;3785;52.260;4.728;2022-08-19T12:15:26;1.58;;;0.80;;
7487;SDS011;3785;52.260;4.728;2022-08-19T12:18:48;0.75;;;0.60;;
7487;SDS011;3785;52.260;4.728;2022-08-19T12:22:10;2.08;;;0.80;;
7487;SDS011;3785;52.260;4.728;2022-08-19T12:25:31;1.15;;;0.80;;
7487;SDS011;3785;52.260;4.728;2022-08-19T12:28:53;1.00;;;0.65;;
7487;SDS011;3785;52.260;4.728;2022-08-19T12:32:14;2.08;;;0.95;;
7487;SDS011;3785;52.260;4.728;2022-08-19T12:35:35;1.13;;;0.73;;
7487;SDS011;3785;52.260;4.728;2022-08-19T12:39:04;1.60;;;1.13;;
7487;SDS011;3785;52.260;4.728;2022-08-19T12:42:26;2.33;;;1.23;;
7487;SDS011;3785;52.260;4.728;2022-08-19T12:45:47;1.77;;;1.15;;
7487;SDS011;3785;52.260;4.728;2022-08-19T12:49:08;1.20;;;0.80;;
7487;SDS011;3785;52.260;4.728;2022-08-19T12:52:28;1.20;;;0.70;;
7487;SDS011;3785;52.260;4.728;2022-08-19T12:55:54;2.63;;;0.80;;
7487;SDS011;3785;52.260;4.728;2022-08-19T12:59:16;1.58;;;0.80;;
7487;SDS011;3785;52.260;4.728;2022-08-19T13:02:38;1.23;;;0.70;;
7487;SDS011;3785;52.260;4.728;2022-08-19T13:06:00;1.77;;;0.95;;
7487;SDS011;3785;52.260;4.728;2022-08-19T13:09:21;2.90;;;0.80;;
7487;SDS011;3785;52.260;4.728;2022-08-19T13:12:42;2.90;;;1.13;;
7487;SDS011;3785;52.260;4.728;2022-08-19T13:16:03;1.60;;;0.90;;
7487;SDS011;3785;52.260;4.728;2022-08-19T13:19:24;2.38;;;1.00;;
7487;SDS011;3785;52.260;4.728;2022-08-19T13:22:46;1.48;;;1.00;;
7487;SDS011;3785;52.260;4.728;2022-08-19T13:26:09;1.25;;;0.80;;
7487;SDS011;3785;52.260;4.728;2022-08-19T13:29:31;2.58;;;0.93;;
7487;SDS011;3785;52.260;4.728;2022-08-19T13:33:10;1.73;;;1.00;;
7487;SDS011;3785;52.260;4.728;2022-08-19T13:36:31;1.75;;;1.17;;
7487;SDS011;3785;52.260;4.728;2022-08-19T13:39:55;1.90;;;0.95;;
7487;SDS011;3785;52.260;4.728;2022-08-19T13:43:15;1.75;;;1.13;;
7487;SDS011;3785;52.260;4.728;2022-08-19T13:46:37;1.60;;;0.98;;
7487;SDS011;3785;52.260;4.728;2022-08-19T13:49:58;1.40;;;0.93;;
7487;SDS011;3785;52.260;4.728;2022-08-19T13:53:22;2.40;;;1.13;;
7487;SDS011;3785;52.260;4.728;2022-08-19T13:56:44;3.15;;;1.50;;
7487;SDS011;3785;52.260;4.728;2022-08-19T14:00:07;1.80;;;1.05;;
7487;SDS011;3785;52.260;4.728;2022-08-19T14:03:32;3.42;;;0.90;;
7487;SDS011;3785;52.260;4.728;2022-08-19T14:06:53;1.92;;;1.00;;
7487;SDS011;3785;52.260;4.728;2022-08-19T14:10:15;2.38;;;1.10;;
7487;SDS011;3785;52.260;4.728;2022-08-19T14:13:36;1.95;;;0.98;;
7487;SDS011;3785;52.260;4.728;2022-08-19T14:16:57;1.15;;;0.80;;
7487;SDS011;3785;52.260;4.728;2022-08-19T14:20:17;2.25;;;0.82;;
7487;SDS011;3785;52.260;4.728;2022-08-19T14:23:38;2.38;;;1.13;;
7487;SDS011;3785;52.260;4.728;2022-08-19T14:26:59;1.40;;;0.90;;
7487;SDS011;3785;52.260;4.728;2022-08-19T14:30:21;1.33;;;0.80;;
7487;SDS011;3785;52.260;4.728;2022-08-19T14:33:47;2.17;;;0.70;;
7487;SDS011;3785;52.260;4.728;2022-08-19T14:37:08;1.75;;;0.80;;
7487;SDS011;3785;52.260;4.728;2022-08-19T14:40:29;2.50;;;1.10;;
7487;SDS011;3785;52.260;4.728;2022-08-19T14:43:51;2.10;;;1.05;;
7487;SDS011;3785;52.260;4.728;2022-08-19T14:47:13;1.30;;;0.90;;
7487;SDS011;3785;52.260;4.728;2022-08-19T14:50:35;1.58;;;0.80;;
7487;SDS011;3785;52.260;4.728;2022-08-19T14:53:57;1.60;;;0.95;;
7487;SDS011;3785;52.260;4.728;2022-08-19T14:57:17;1.58;;;1.23;;
7487;SDS011;3785;52.260;4.728;2022-08-19T15:00:38;3.13;;;0.90;;
7487;SDS011;3785;52.260;4.728;2022-08-19T15:03:59;2.78;;;1.08;;
7487;SDS011;3785;52.260;4.728;2022-08-19T15:07:19;2.30;;;1.05;;
7487;SDS011;3785;52.260;4.728;2022-08-19T15:10:40;1.20;;;0.70;;
7487;SDS011;3785;52.260;4.728;2022-08-19T15:14:00;2.58;;;1.15;;
7487;SDS011;3785;52.260;4.728;2022-08-19T15:17:21;1.25;;;0.70;;
7487;SDS011;3785;52.260;4.728;2022-08-19T15:20:42;1.60;;;1.00;;
7487;SDS011;3785;52.260;4.728;2022-08-19T15:24:03;2.22;;;1.13;;
7487;SDS011;3785;52.260;4.728;2022-08-19T15:27:25;2.85;;;1.35;;
7487;SDS011;3785;52.260;4.728;2022-08-19T15:30:45;2.80;;;1.00;;
7487;SDS011;3785;52.260;4.728;2022-08-19T15:34:06;2.08;;;1.00;;
7487;SDS011;3785;52.260;4.728;2022-08-19T15:37:27;1.40;;;1.02;;
7487;SDS011;3785;52.260;4.728;2022-08-19T15:40:47;1.77;;;1.00;;
7487;SDS011;3785;52.260;4.728;2022-08-19T15:44:11;1.88;;;0.90;;
7487;SDS011;3785;52.260;4.728;2022-08-19T15:47:33;1.75;;;0.80;;
7487;SDS011;3785;52.260;4.728;2022-08-19T15:50:54;1.40;;;0.77;;
7487;SDS011;3785;52.260;4.728;2022-08-19T15:54:15;1.30;;;0.85;;
7487;SDS011;3785;52.260;4.728;2022-08-19T15:57:38;1.67;;;1.00;;
7487;SDS011;3785;52.260;4.728;2022-08-19T16:01:16;2.55;;;0.98;;
7487;SDS011;3785;52.260;4.728;2022-08-19T16:05:07;1.02;;;0.70;;
7487;SDS011;3785;52.260;4.728;2022-08-19T16:08:49;1.15;;;0.68;;
7487;SDS011;3785;52.260;4.728;2022-08-19T16:12:17;2.83;;;1.00;;
7487;SDS011;3785;52.260;4.728;2022-08-19T16:15:38;1.27;;;0.63;;
7487;SDS011;3785;52.260;4.728;2022-08-19T16:19:02;2.03;;;0.73;;
7487;SDS011;3785;52.260;4.728;2022-08-19T16:22:29;0.93;;;0.60;;
7487;SDS011;3785;52.260;4.728;2022-08-19T16:25:50;0.70;;;0.50;;
7487;SDS011;3785;52.260;4.728;2022-08-19T16:29:11;0.55;;;0.40;;
7487;SDS011;3785;52.260;4.728;2022-08-19T16:32:32;0.77;;;0.38;;
7487;SDS011;3785;52.260;4.728;2022-08-19T16:35:53;1.63;;;0.60;;
7487;SDS011;3785;52.260;4.728;2022-08-19T16:39:14;1.58;;;0.47;;
7487;SDS011;3785;52.260;4.728;2022-08-19T16:42:36;0.90;;;0.50;;
7487;SDS011;3785;52.260;4.728;2022-08-19T16:45:57;0.80;;;0.57;;
7487;SDS011;3785;52.260;4.728;2022-08-19T16:49:18;1.08;;;0.60;;
7487;SDS011;3785;52.260;4.728;2022-08-19T16:52:39;0.50;;;0.30;;
7487;SDS011;3785;52.260;4.728;2022-08-19T16:55:59;0.95;;;0.40;;
7487;SDS011;3785;52.260;4.728;2022-08-19T16:59:20;1.27;;;0.43;;
7487;SDS011;3785;52.260;4.728;2022-08-19T17:02:43;0.75;;;0.45;;
7487;SDS011;3785;52.260;4.728;2022-08-19T17:06:07;1.45;;;0.45;;
7487;SDS011;3785;52.260;4.728;2022-08-19T17:09:33;1.02;;;0.43;;
7487;SDS011;3785;52.260;4.728;2022-08-19T17:12:53;1.25;;;0.52;;
7487;SDS011;3785;52.260;4.728;2022-08-19T17:16:15;1.60;;;0.80;;
7487;SDS011;3785;52.260;4.728;2022-08-19T17:19:36;0.80;;;0.50;;
7487;SDS011;3785;52.260;4.728;2022-08-19T17:22:59;1.35;;;0.70;;
7487;SDS011;3785;52.260;4.728;2022-08-19T17:26:20;1.38;;;0.70;;
7487;SDS011;3785;52.260;4.728;2022-08-19T17:29:41;1.52;;;1.00;;
7487;SDS011;3785;52.260;4.728;2022-08-19T17:33:02;1.35;;;0.73;;
7487;SDS011;3785;52.260;4.728;2022-08-19T17:36:25;1.92;;;0.68;;
7487;SDS011;3785;52.260;4.728;2022-08-19T17:39:47;1.33;;;0.70;;
7487;SDS011;3785;52.260;4.728;2022-08-19T17:43:08;1.00;;;0.68;;
7487;SDS011;3785;52.260;4.728;2022-08-19T17:46:29;1.67;;;0.77;;
7487;SDS011;3785;52.260;4.728;2022-08-19T17:49:51;0.90;;;0.50;;
7487;SDS011;3785;52.260;4.728;2022-08-19T17:57:10;1.52;;;0.90;;
7487;SDS011;3785;52.260;4.728;2022-08-19T18:00:31;1.90;;;1.00;;
7487;SDS011;3785;52.260;4.728;2022-08-19T18:03:52;1.10;;;0.65;;
7487;SDS011;3785;52.260;4.728;2022-08-19T18:07:13;2.97;;;1.05;;
7487;SDS011;3785;52.260;4.728;2022-08-19T18:10:34;1.70;;;1.17;;
7487;SDS011;3785;52.260;4.728;2022-08-19T18:13:55;2.55;;;1.20;;
7487;SDS011;3785;52.260;4.728;2022-08-19T18:17:16;2.08;;;1.40;;
7487;SDS011;3785;52.260;4.728;2022-08-19T18:20:38;2.40;;;1.67;;
7487;SDS011;3785;52.260;4.728;2022-08-19T18:23:58;2.33;;;1.42;;
7487;SDS011;3785;52.260;4.728;2022-08-19T18:27:19;3.63;;;1.85;;
7487;SDS011;3785;52.260;4.728;2022-08-19T18:30:40;2.65;;;1.80;;
7487;SDS011;3785;52.260;4.728;2022-08-19T18:34:01;4.03;;;2.00;;
7487;SDS011;3785;52.260;4.728;2022-08-19T18:37:22;2.30;;;1.65;;
7487;SDS011;3785;52.260;4.728;2022-08-19T18:40:45;3.60;;;2.00;;
7487;SDS011;3785;52.260;4.728;2022-08-19T18:44:24;3.10;;;2.30;;
7487;SDS011;3785;52.260;4.728;2022-08-19T18:48:03;4.05;;;2.15;;
7487;SDS011;3785;52.260;4.728;2022-08-19T18:51:42;2.55;;;1.80;;
7487;SDS011;3785;52.260;4.728;2022-08-19T18:55:03;2.92;;;2.20;;
7487;SDS011;3785;52.260;4.728;2022-08-19T18:58:26;3.80;;;2.15;;
7487;SDS011;3785;52.260;4.728;2022-08-19T19:01:55;4.55;;;2.20;;
7487;SDS011;3785;52.260;4.728;2022-08-19T19:05:16;2.50;;;1.90;;
7487;SDS011;3785;52.260;4.728;2022-08-19T19:08:39;3.30;;;2.28;;
7487;SDS011;3785;52.260;4.728;2022-08-19T19:12:00;2.90;;;1.95;;
7487;SDS011;3785;52.260;4.728;2022-08-19T19:15:22;2.95;;;2.20;;
7487;SDS011;3785;52.260;4.728;2022-08-19T19:18:43;4.22;;;2.22;;
7487;SDS011;3785;52.260;4.728;2022-08-19T19:22:04;4.05;;;2.33;;
7487;SDS011;3785;52.260;4.728;2022-08-19T19:25:24;3.30;;;2.33;;
7487;SDS011;3785;52.260;4.728;2022-08-19T19:28:46;3.42;;;2.10;;
7487;SDS011;3785;52.260;4.728;2022-08-19T19:32:09;2.85;;;1.85;;
7487;SDS011;3785;52.260;4.728;2022-08-19T19:35:35;3.35;;;2.08;;
7487;SDS011;3785;52.260;4.728;2022-08-19T19:38:56;3.63;;;2.13;;
7487;SDS011;3785;52.260;4.728;2022-08-19T19:42:18;3.63;;;2.17;;
7487;SDS011;3785;52.260;4.728;2022-08-19T19:45:39;2.95;;;2.00;;
7487;SDS011;3785;52.260;4.728;2022-08-19T19:49:00;3.75;;;2.10;;
7487;SDS011;3785;52.260;4.728;2022-08-19T19:52:21;3.08;;;2.08;;
7487;SDS011;3785;52.260;4.728;2022-08-19T19:55:42;3.55;;;2.35;;
7487;SDS011;3785;52.260;4.728;2022-08-19T19:59:02;3.45;;;1.95;;
7487;SDS011;3785;52.260;4.728;2022-08-19T20:02:23;2.53;;;1.77;;
7487;SDS011;3785;52.260;4.728;2022-08-19T20:05:45;4.45;;;1.67;;
7487;SDS011;3785;52.260;4.728;2022-08-19T20:09:06;3.28;;;1.80;;
7487;SDS011;3785;52.260;4.728;2022-08-19T20:12:29;3.63;;;1.70;;
7487;SDS011;3785;52.260;4.728;2022-08-19T20:15:49;1.65;;;1.20;;
7487;SDS011;3785;52.260;4.728;2022-08-19T20:19:11;1.75;;;1.25;;
7487;SDS011;3785;52.260;4.728;2022-08-19T20:22:36;3.35;;;1.20;;
7487;SDS011;3785;52.260;4.728;2022-08-19T20:25:58;2.58;;;1.40;;
7487;SDS011;3785;52.260;4.728;2022-08-19T20:29:19;2.35;;;1.10;;
7487;SDS011;3785;52.260;4.728;2022-08-19T20:32:41;5.25;;;1.30;;
7487;SDS011;3785;52.260;4.728;2022-08-19T20:36:02;3.00;;;1.20;;
7487;SDS011;3785;52.260;4.728;2022-08-19T20:39:23;3.17;;;1.27;;
7487;SDS011;3785;52.260;4.728;2022-08-19T20:42:44;5.10;;;1.30;;
7487;SDS011;3785;52.260;4.728;2022-08-19T20:46:05;2.22;;;1.23;;
7487;SDS011;3785;52.260;4.728;2022-08-19T20:49:26;3.13;;;1.17;;
7487;SDS011;3785;52.260;4.728;2022-08-19T20:52:46;2.58;;;0.90;;
7487;SDS011;3785;52.260;4.728;2022-08-19T20:56:07;3.50;;;1.10;;
7487;SDS011;3785;52.260;4.728;2022-08-19T20:59:28;2.78;;;1.20;;
7487;SDS011;3785;52.260;4.728;2022-08-19T21:02:48;3.17;;;0.88;;
7487;SDS011;3785;52.260;4.728;2022-08-19T21:06:09;3.10;;;1.23;;